Time,TemperatureF,DewpointF,PressureIn,WindDirection,WindDirectionDegrees,WindSpeedMPH,WindSpeedGustMPH,Humidity,HourlyPrecipIn,Conditions,Clouds,dailyrainin,SoftwareType,DateUTC
2013-10-10 00:13:00,51.4,50.0,29.95,ESE,112,0.0,-999.0,95,-99.99,,,0.00,Acu-Link.com,2013-10-10 05:13:00,
2013-10-10 00:28:00,51.3,49.9,29.95,East,90,0.0,-999.0,95,-99.99,,,0.00,Acu-Link.com,2013-10-10 05:28:00,
2013-10-10 00:43:00,50.9,49.5,29.96,East,90,0.0,-999.0,95,-99.99,,,0.00,Acu-Link.com,2013-10-10 05:43:00,
2013-10-10 00:59:00,50.9,49.5,29.96,East,90,0.0,-999.0,95,-99.99,,,0.00,Acu-Link.com,2013-10-10 05:59:00,
2013-10-10 01:14:00,50.5,49.1,29.96,East,90,0.0,-999.0,95,-99.99,,,0.00,Acu-Link.com,2013-10-10 06:14:00,
2013-10-10 01:30:00,50.7,49.3,29.96,ESE,112,0.0,-999.0,95,-99.99,,,0.00,Acu-Link.com,2013-10-10 06:30:00,
2013-10-10 01:45:00,50.5,49.4,29.96,ESE,112,0.0,-999.0,96,-99.99,,,0.00,Acu-Link.com,2013-10-10 06:45:00,
2013-10-10 02:00:00,50.5,49.4,29.96,NE,45,0.0,-999.0,96,-99.99,,,0.00,Acu-Link.com,2013-10-10 07:00:00,
2013-10-10 02:15:00,50.4,49.3,29.96,East,90,0.0,-999.0,96,-99.99,,,0.00,Acu-Link.com,2013-10-10 07:15:00,
2013-10-10 02:31:00,50.2,49.1,29.96,ENE,67,0.0,-999.0,96,-99.99,,,0.00,Acu-Link.com,2013-10-10 07:31:00,
2013-10-10 02:46:00,50.4,49.6,29.97,NE,45,0.0,-999.0,97,-99.99,,,0.00,Acu-Link.com,2013-10-10 07:46:00,
2013-10-10 03:01:00,50.4,49.6,29.97,NE,45,0.0,-999.0,97,-99.99,,,0.00,Acu-Link.com,2013-10-10 08:01:00,
2013-10-10 03:16:00,49.6,48.5,29.96,NE,45,0.0,-999.0,96,-99.99,,,0.00,Acu-Link.com,2013-10-10 08:16:00,
2013-10-10 03:32:00,49.6,48.8,29.97,NE,45,0.0,-999.0,97,-99.99,,,0.00,Acu-Link.com,2013-10-10 08:32:00,
2013-10-10 03:47:00,49.3,48.5,29.96,NE,45,0.0,-999.0,97,-99.99,,,0.00,Acu-Link.com,2013-10-10 08:47:00,
2013-10-10 04:02:00,48.9,48.1,29.96,NE,45,0.0,-999.0,97,-99.99,,,0.00,Acu-Link.com,2013-10-10 09:02:00,
2013-10-10 04:17:00,48.7,48.2,29.96,NE,45,0.0,-999.0,98,-99.99,,,0.00,Acu-Link.com,2013-10-10 09:17:00,
2013-10-10 04:32:00,48.2,47.4,29.96,NE,45,0.0,-999.0,97,-99.99,,,0.00,Acu-Link.com,2013-10-10 09:32:00,
2013-10-10 04:47:00,48.4,47.9,29.96,NE,45,0.0,-999.0,98,-99.99,,,0.00,Acu-Link.com,2013-10-10 09:47:00,
2013-10-10 05:03:00,47.8,47.5,29.96,NE,45,0.0,-999.0,99,-99.99,,,0.00,Acu-Link.com,2013-10-10 10:03:00,
2013-10-10 05:18:00,47.7,47.2,29.97,NE,45,0.0,-999.0,98,-99.99,,,0.00,Acu-Link.com,2013-10-10 10:18:00,
2013-10-10 05:33:00,47.1,46.6,29.97,ENE,67,0.0,-999.0,98,-99.99,,,0.00,Acu-Link.com,2013-10-10 10:33:00,
2013-10-10 05:48:00,46.9,46.4,29.97,ENE,67,0.0,-999.0,98,-99.99,,,0.00,Acu-Link.com,2013-10-10 10:48:00,
2013-10-10 06:04:00,46.8,46.5,29.98,ENE,67,0.0,-999.0,99,-99.99,,,0.00,Acu-Link.com,2013-10-10 11:04:00,
2013-10-10 06:19:00,46.6,46.3,29.98,ENE,67,0.0,-999.0,99,-99.99,,,0.00,Acu-Link.com,2013-10-10 11:19:00,
2013-10-10 06:34:00,47.3,47.0,29.98,ENE,67,0.0,-999.0,99,-99.99,,,0.00,Acu-Link.com,2013-10-10 11:34:00,
2013-10-10 06:50:00,47.7,47.4,29.98,ENE,67,0.0,-999.0,99,-99.99,,,0.00,Acu-Link.com,2013-10-10 11:50:00,
2013-10-10 07:05:00,48.0,47.7,29.98,ENE,67,0.0,-999.0,99,-99.99,,,0.00,Acu-Link.com,2013-10-10 12:05:00,
2013-10-10 07:20:00,48.9,48.6,29.98,ENE,67,0.0,-999.0,99,-99.99,,,0.00,Acu-Link.com,2013-10-10 12:20:00,
2013-10-10 07:36:00,50.9,50.6,29.99,NE,45,0.0,-999.0,99,-99.99,,,0.00,Acu-Link.com,2013-10-10 12:36:00,
2013-10-10 07:51:00,51.6,51.3,29.98,East,90,0.0,-999.0,99,-99.99,,,0.00,Acu-Link.com,2013-10-10 12:51:00,
2013-10-10 08:06:00,52.9,52.6,29.99,SSE,157,1.1,-999.0,99,-99.99,,,0.00,Acu-Link.com,2013-10-10 13:06:00,
2013-10-10 08:21:00,54.7,54.4,29.99,ESE,112,2.2,-999.0,99,-99.99,,,0.00,Acu-Link.com,2013-10-10 13:21:00,
2013-10-10 08:37:00,56.1,55.0,29.99,SSE,157,3.2,-999.0,96,-99.99,,,0.00,Acu-Link.com,2013-10-10 13:37:00,
2013-10-10 08:52:00,58.5,55.9,30.00,SSE,157,4.2,-999.0,91,-99.99,,,0.00,Acu-Link.com,2013-10-10 13:52:00,
2013-10-10 09:07:00,59.4,56.2,30.00,ESE,112,2.7,-999.0,89,-99.99,,,0.00,Acu-Link.com,2013-10-10 14:07:00,
2013-10-10 09:22:00,59.4,56.2,30.00,ESE,112,1.7,-999.0,89,-99.99,,,0.00,Acu-Link.com,2013-10-10 14:22:00,
2013-10-10 09:38:00,60.3,56.7,30.00,SSE,157,5.3,-999.0,88,-99.99,,,0.00,Acu-Link.com,2013-10-10 14:38:00,
2013-10-10 09:53:00,60.4,56.8,30.00,SE,135,2.7,-999.0,88,-99.99,,,0.00,Acu-Link.com,2013-10-10 14:53:00,
2013-10-10 10:08:00,61.2,56.7,30.00,SSE,157,4.2,-999.0,85,-99.99,,,0.00,Acu-Link.com,2013-10-10 15:08:00,
2013-10-10 10:24:00,64.2,57.5,30.00,ESE,112,3.7,-999.0,79,-99.99,,,0.00,Acu-Link.com,2013-10-10 15:24:00,
2013-10-10 10:39:00,65.7,57.9,30.00,South,180,5.3,-999.0,76,-99.99,,,0.00,Acu-Link.com,2013-10-10 15:39:00,
2013-10-10 10:54:00,66.9,57.6,30.00,SSE,157,4.2,-999.0,72,-99.99,,,0.00,Acu-Link.com,2013-10-10 15:54:00,
2013-10-10 11:09:00,68.4,58.2,30.00,SE,135,4.2,-999.0,70,-99.99,,,0.00,Acu-Link.com,2013-10-10 16:09:00,
2013-10-10 11:24:00,69.3,58.7,29.99,SE,135,4.7,-999.0,69,-99.99,,,0.00,Acu-Link.com,2013-10-10 16:24:00,
2013-10-10 11:40:00,70.9,59.0,29.99,ESE,112,2.7,-999.0,66,-99.99,,,0.00,Acu-Link.com,2013-10-10 16:40:00,
2013-10-10 11:55:00,71.6,59.2,29.99,ESE,112,4.7,-999.0,65,-99.99,,,0.00,Acu-Link.com,2013-10-10 16:55:00,
2013-10-10 12:10:00,73.0,59.6,29.98,SSE,157,3.7,-999.0,63,-99.99,,,0.00,Acu-Link.com,2013-10-10 17:10:00,
2013-10-10 12:26:00,73.9,60.0,29.97,ESE,112,5.8,-999.0,62,-99.99,,,0.00,Acu-Link.com,2013-10-10 17:26:00,
2013-10-10 12:41:00,74.1,58.8,29.96,SSE,157,3.7,-999.0,59,-99.99,,,0.00,Acu-Link.com,2013-10-10 17:41:00,
2013-10-10 12:56:00,74.5,58.3,29.95,SSE,157,2.7,-999.0,57,-99.99,,,0.00,Acu-Link.com,2013-10-10 17:56:00,
2013-10-10 13:11:00,74.8,58.0,29.95,SE,135,2.7,-999.0,56,-99.99,,,0.00,Acu-Link.com,2013-10-10 18:11:00,
2013-10-10 13:26:00,75.4,58.6,29.94,ESE,112,5.3,-999.0,56,-99.99,,,0.00,Acu-Link.com,2013-10-10 18:26:00,
2013-10-10 13:42:00,75.6,59.8,29.93,ESE,112,3.7,-999.0,58,-99.99,,,0.00,Acu-Link.com,2013-10-10 18:42:00,
2013-10-10 13:57:00,76.1,60.2,29.92,SE,135,4.2,-999.0,58,-99.99,,,0.00,Acu-Link.com,2013-10-10 18:57:00,
2013-10-10 14:12:00,76.3,60.4,29.91,ENE,67,2.7,-999.0,58,-99.99,,,0.00,Acu-Link.com,2013-10-10 19:12:00,
2013-10-10 14:27:00,76.3,60.4,29.90,East,90,2.2,-999.0,58,-99.99,,,0.00,Acu-Link.com,2013-10-10 19:27:00,
2013-10-10 14:43:00,76.5,58.1,29.90,SSE,157,6.8,-999.0,53,-99.99,,,0.00,Acu-Link.com,2013-10-10 19:43:00,
2013-10-10 14:58:00,76.6,59.7,29.89,ESE,112,2.2,-999.0,56,-99.99,,,0.00,Acu-Link.com,2013-10-10 19:58:00,
2013-10-10 15:13:00,76.3,58.9,29.89,SE,135,5.8,-999.0,55,-99.99,,,0.00,Acu-Link.com,2013-10-10 20:13:00,
2013-10-10 15:28:00,76.8,59.9,29.88,SSE,157,4.2,-999.0,56,-99.99,,,0.00,Acu-Link.com,2013-10-10 20:28:00,
2013-10-10 15:44:00,75.6,59.3,29.88,SSE,157,4.7,-999.0,57,-99.99,,,0.00,Acu-Link.com,2013-10-10 20:44:00,
2013-10-10 15:59:00,76.8,58.9,29.87,NNE,22,1.7,-999.0,54,-99.99,,,0.00,Acu-Link.com,2013-10-10 20:59:00,
2013-10-10 16:14:00,75.7,58.4,29.87,ESE,112,3.2,-999.0,55,-99.99,,,0.00,Acu-Link.com,2013-10-10 21:14:00,
2013-10-10 16:29:00,75.2,57.9,29.87,SSE,157,3.2,-999.0,55,-99.99,,,0.00,Acu-Link.com,2013-10-10 21:29:00,
2013-10-10 16:44:00,75.0,57.7,29.86,SE,135,2.2,-999.0,55,-99.99,,,0.00,Acu-Link.com,2013-10-10 21:44:00,
2013-10-10 17:00:00,74.5,56.2,29.86,SE,135,4.2,-999.0,53,-99.99,,,0.00,Acu-Link.com,2013-10-10 22:00:00,
2013-10-10 17:15:00,74.1,57.9,29.86,NNW,337,1.7,-999.0,57,-99.99,,,0.00,Acu-Link.com,2013-10-10 22:15:00,
2013-10-10 17:30:00,73.6,57.4,29.85,SE,135,4.2,-999.0,57,-99.99,,,0.00,Acu-Link.com,2013-10-10 22:30:00,
2013-10-10 17:45:00,72.9,57.2,29.86,East,90,2.7,-999.0,58,-99.99,,,0.00,Acu-Link.com,2013-10-10 22:45:00,
2013-10-10 18:00:00,72.1,57.4,29.85,East,90,1.7,-999.0,60,-99.99,,,0.00,Acu-Link.com,2013-10-10 23:00:00,
2013-10-10 18:16:00,70.9,57.7,29.85,ESE,112,2.7,-999.0,63,-99.99,,,0.00,Acu-Link.com,2013-10-10 23:16:00,
2013-10-10 18:31:00,69.6,57.7,29.84,SSE,157,1.1,-999.0,66,-99.99,,,0.00,Acu-Link.com,2013-10-10 23:31:00,
2013-10-10 18:46:00,68.2,57.6,29.84,East,90,0.0,-999.0,69,-99.99,,,0.00,Acu-Link.com,2013-10-10 23:46:00,
2013-10-10 19:02:00,66.7,57.4,29.84,ESE,112,1.1,-999.0,72,-99.99,,,0.00,Acu-Link.com,2013-10-11 00:02:00,
2013-10-10 19:17:00,65.7,57.2,29.84,SE,135,1.1,-999.0,74,-99.99,,,0.00,Acu-Link.com,2013-10-11 00:17:00,
2013-10-10 19:32:00,64.8,57.4,29.84,ESE,112,2.2,-999.0,77,-99.99,,,0.00,Acu-Link.com,2013-10-11 00:32:00,
2013-10-10 19:47:00,64.2,57.2,29.84,ESE,112,1.7,-999.0,78,-99.99,,,0.00,Acu-Link.com,2013-10-11 00:47:00,
2013-10-10 20:02:00,63.5,56.9,29.85,NE,45,0.0,-999.0,79,-99.99,,,0.00,Acu-Link.com,2013-10-11 01:02:00,
2013-10-10 20:18:00,62.8,56.2,29.85,East,90,0.0,-999.0,79,-99.99,,,0.00,Acu-Link.com,2013-10-11 01:18:00,
2013-10-10 20:33:00,62.2,55.6,29.85,ESE,112,0.0,-999.0,79,-99.99,,,0.00,Acu-Link.com,2013-10-11 01:33:00,
2013-10-10 20:48:00,61.2,54.6,29.84,ESE,112,0.0,-999.0,79,-99.99,,,0.00,Acu-Link.com,2013-10-11 01:48:00,
2013-10-10 21:03:00,60.4,54.2,29.84,NE,45,0.0,-999.0,80,-99.99,,,0.00,Acu-Link.com,2013-10-11 02:03:00,
2013-10-10 21:18:00,60.4,54.2,29.84,ESE,112,0.0,-999.0,80,-99.99,,,0.00,Acu-Link.com,2013-10-11 02:18:00,
2013-10-10 21:34:00,60.3,54.1,29.84,East,90,0.0,-999.0,80,-99.99,,,0.00,Acu-Link.com,2013-10-11 02:34:00,
2013-10-10 21:49:00,59.7,54.2,29.84,ESE,112,0.0,-999.0,82,-99.99,,,0.00,Acu-Link.com,2013-10-11 02:49:00,
2013-10-10 22:04:00,59.7,54.2,29.83,East,90,1.7,-999.0,82,-99.99,,,0.00,Acu-Link.com,2013-10-11 03:04:00,
2013-10-10 22:19:00,59.9,54.4,29.83,ESE,112,2.7,-999.0,82,-99.99,,,0.00,Acu-Link.com,2013-10-11 03:19:00,
2013-10-10 22:34:00,60.8,54.9,29.84,SE,135,3.2,-999.0,81,-99.99,,,0.00,Acu-Link.com,2013-10-11 03:34:00,
2013-10-10 22:50:00,60.8,54.6,29.84,SE,135,3.7,-999.0,80,-99.99,,,0.00,Acu-Link.com,2013-10-11 03:50:00,
2013-10-10 23:05:00,60.1,54.6,29.83,ESE,112,1.7,-999.0,82,-99.99,,,0.00,Acu-Link.com,2013-10-11 04:05:00,
2013-10-10 23:20:00,60.1,54.9,29.83,ESE,112,1.7,-999.0,83,-99.99,,,0.00,Acu-Link.com,2013-10-11 04:20:00,
2013-10-10 23:35:00,59.9,54.7,29.82,SE,135,2.2,-999.0,83,-99.99,,,0.00,Acu-Link.com,2013-10-11 04:35:00,
2013-10-10 23:51:00,59.2,54.7,29.82,ESE,112,2.2,-999.0,85,-99.99,,,0.00,Acu-Link.com,2013-10-11 04:51:00,